createdAt,value
2023-10-16T00:00:38.308Z,9.242400
2023-10-16T00:01:38.282Z,9.242423
2023-10-16T00:02:38.274Z,9.242409
2023-10-16T00:03:38.296Z,9.242395
2023-10-16T00:04:38.347Z,9.242347
2023-10-16T00:05:38.231Z,9.242326
2023-10-16T00:06:38.251Z,9.242464
2023-10-16T00:07:38.216Z,9.242415
2023-10-16T00:08:38.232Z,9.242465
2023-10-16T00:09:38.264Z,9.242496
2023-10-16T00:10:38.190Z,9.242425
2023-10-16T00:11:38.175Z,9.242464
2023-10-16T00:12:38.290Z,9.242467
2023-10-16T00:13:38.197Z,9.242393
2023-10-16T00:14:38.176Z,9.242393
2023-10-16T00:15:38.257Z,9.242452
2023-10-16T00:16:38.253Z,9.242427
2023-10-16T00:17:38.195Z,9.242396
2023-10-16T00:18:38.189Z,9.242399
2023-10-16T00:19:38.140Z,9.242434
2023-10-16T00:20:38.140Z,9.242368
2023-10-16T00:21:38.138Z,9.242373
2023-10-16T00:22:38.167Z,9.242214
2023-10-16T00:23:38.118Z,9.242294
2023-10-16T00:24:38.175Z,9.242392
2023-10-16T00:25:38.122Z,9.242399
2023-10-16T00:26:38.141Z,9.242326
2023-10-16T00:27:38.107Z,9.242362
2023-10-16T00:28:38.108Z,9.242371
2023-10-16T00:29:38.088Z,9.242365
2023-10-16T00:30:38.086Z,9.242336
2023-10-16T00:31:38.127Z,9.242349
2023-10-16T00:32:38.126Z,9.242423
2023-10-16T00:33:38.094Z,9.242436
2023-10-16T00:34:38.045Z,9.242415
2023-10-16T00:35:38.028Z,9.242352
2023-10-16T00:36:38.127Z,9.242412
2023-10-16T00:37:38.021Z,9.242356
2023-10-16T00:38:38.008Z,9.242414
2023-10-16T00:39:38.094Z,9.242455
2023-10-16T00:40:38.005Z,9.242434
2023-10-16T00:41:38.019Z,9.242364
2023-10-16T00:42:38.033Z,9.242404
2023-10-16T00:43:37.994Z,9.242373
2023-10-16T00:44:37.982Z,9.242356
2023-10-16T00:45:38.023Z,9.242364
2023-10-16T00:46:38.120Z,9.242374
2023-10-16T00:47:38.044Z,9.242400
2023-10-16T00:48:37.990Z,9.242444
2023-10-16T00:49:37.946Z,9.242398
2023-10-16T00:50:37.989Z,9.242383
2023-10-16T00:51:40.966Z,9.242347
2023-10-16T00:52:38.974Z,9.242367
2023-10-16T00:53:37.924Z,9.242373
2023-10-16T00:54:37.926Z,9.242426
2023-10-16T00:55:37.941Z,9.242474
2023-10-16T00:56:37.905Z,9.242517
2023-10-16T00:57:37.962Z,9.242320
2023-10-16T00:58:37.888Z,9.242361
2023-10-16T00:59:37.911Z,9.242329
2023-10-16T01:00:37.949Z,9.242310
2023-10-16T01:01:37.909Z,9.242347
2023-10-16T01:02:37.936Z,9.242276
2023-10-16T01:03:38.085Z,9.242196
2023-10-16T01:04:37.870Z,9.242208
2023-10-16T01:05:37.835Z,9.242376
2023-10-16T01:06:38.861Z,9.242419
2023-10-16T01:07:37.821Z,9.242407
2023-10-16T01:08:37.817Z,9.242367
2023-10-16T01:09:38.060Z,9.242393
2023-10-16T01:10:37.810Z,9.242414
2023-10-16T01:11:37.792Z,9.242349
2023-10-16T01:12:37.869Z,9.242400
2023-10-16T01:13:38.864Z,9.242474
2023-10-16T01:14:37.812Z,9.242327
2023-10-16T01:15:37.818Z,9.242345
2023-10-16T01:16:37.821Z,9.242408
2023-10-16T01:17:37.808Z,9.242265
2023-10-16T01:18:37.821Z,9.242151
2023-10-16T01:19:37.752Z,9.242231
2023-10-16T01:20:37.752Z,9.242304
2023-10-16T01:21:37.758Z,9.242201
2023-10-16T01:22:37.728Z,9.242334
2023-10-16T01:23:37.742Z,9.242372
2023-10-16T01:24:37.732Z,9.242325
2023-10-16T01:25:37.740Z,9.242334
2023-10-16T01:26:37.701Z,9.242405
2023-10-16T01:27:37.755Z,9.242338
2023-10-16T01:28:37.714Z,9.242407
2023-10-16T01:29:37.726Z,9.242311
2023-10-16T01:30:37.696Z,9.242313
2023-10-16T01:31:37.728Z,9.242309
2023-10-16T01:32:37.717Z,9.242327
2023-10-16T01:33:37.690Z,9.242449
2023-10-16T01:34:37.649Z,9.242302
2023-10-16T01:35:37.648Z,9.242390
2023-10-16T01:36:37.676Z,9.242293
2023-10-16T01:37:37.647Z,9.242378
2023-10-16T01:38:37.691Z,9.242211
2023-10-16T01:39:37.634Z,9.242225
2023-10-16T01:40:37.631Z,9.242329
2023-10-16T01:41:37.622Z,9.242323
2023-10-16T01:42:37.662Z,9.242335
2023-10-16T01:43:37.591Z,9.242307
2023-10-16T01:44:37.577Z,9.242353
2023-10-16T01:45:38.662Z,9.242293
2023-10-16T01:46:37.656Z,9.242323
2023-10-16T01:47:37.599Z,9.242373
2023-10-16T01:48:37.629Z,9.242386
2023-10-16T01:49:37.559Z,9.242373
2023-10-16T01:50:37.552Z,9.242319
2023-10-16T01:51:37.578Z,9.242403
2023-10-16T01:52:37.542Z,9.242424
2023-10-16T01:53:37.531Z,9.242364
2023-10-16T01:54:37.555Z,9.242371
2023-10-16T01:55:37.541Z,9.242424
2023-10-16T01:56:37.521Z,9.242373
2023-10-16T01:57:37.560Z,9.242351
2023-10-16T01:58:37.509Z,9.242312
2023-10-16T01:59:37.499Z,9.242404
2023-10-16T02:00:37.598Z,9.242378
2023-10-16T02:01:37.540Z,9.242293
2023-10-16T02:02:37.515Z,9.242305
2023-10-16T02:03:37.565Z,9.242340
2023-10-16T02:04:37.485Z,9.242353
2023-10-16T02:05:37.492Z,9.242283
2023-10-16T02:06:37.480Z,9.242292
2023-10-16T02:07:37.455Z,9.242355
2023-10-16T02:08:37.452Z,9.242301
2023-10-16T02:09:37.518Z,9.242303
2023-10-16T02:10:37.437Z,9.242343
2023-10-16T02:11:37.421Z,9.242330
2023-10-16T02:12:37.413Z,9.242333
2023-10-16T02:13:37.407Z,9.242370
2023-10-16T02:14:37.423Z,9.242315
2023-10-16T02:15:37.506Z,9.242304
2023-10-16T02:16:37.414Z,9.242311
2023-10-16T02:17:37.410Z,9.242367
2023-10-16T02:18:37.428Z,9.242326
2023-10-16T02:19:37.399Z,9.242394
2023-10-16T02:20:37.364Z,9.242403
2023-10-16T02:21:37.419Z,9.242389
2023-10-16T02:22:37.349Z,9.242397
2023-10-16T02:23:37.385Z,9.242340
2023-10-16T02:24:37.366Z,9.242399
2023-10-16T02:25:37.333Z,9.242374
2023-10-16T02:26:37.333Z,9.242428
2023-10-16T02:27:37.375Z,9.242448
2023-10-16T02:28:37.327Z,9.242424
2023-10-16T02:29:37.304Z,9.242476
2023-10-16T02:30:37.469Z,9.242382
2023-10-16T02:31:37.338Z,9.242414
2023-10-16T02:32:37.332Z,9.242536
2023-10-16T02:33:37.315Z,9.242496
2023-10-16T02:34:37.282Z,9.242409
2023-10-16T02:35:37.277Z,9.242414
2023-10-16T02:36:37.346Z,9.242480
2023-10-16T02:37:37.299Z,9.242462
2023-10-16T02:38:37.257Z,9.242447
2023-10-16T02:39:37.259Z,9.242426
2023-10-16T02:40:37.258Z,9.242449
2023-10-16T02:41:37.234Z,9.242409
2023-10-16T02:42:37.294Z,9.242451
2023-10-16T02:43:37.219Z,9.242455
2023-10-16T02:44:37.219Z,9.242454
2023-10-16T02:45:37.234Z,9.242437
2023-10-16T02:46:37.262Z,9.242338
2023-10-16T02:47:37.244Z,9.242391
2023-10-16T02:48:37.206Z,9.242423
2023-10-16T02:49:37.187Z,9.242357
2023-10-16T02:50:37.175Z,9.242366
2023-10-16T02:51:37.290Z,9.242377
2023-10-16T02:52:37.165Z,9.242377
2023-10-16T02:53:37.164Z,9.242364
2023-10-16T02:54:37.184Z,9.242389
2023-10-16T02:55:37.143Z,9.242405
2023-10-16T02:56:37.191Z,9.242426
2023-10-16T02:57:37.165Z,9.242438
2023-10-16T02:58:37.125Z,9.242402
2023-10-16T02:59:37.129Z,9.242352
2023-10-16T03:00:37.170Z,9.242352
2023-10-16T03:01:37.165Z,9.242359
2023-10-16T03:02:37.181Z,9.242370
2023-10-16T03:03:37.149Z,9.242414
2023-10-16T03:04:37.116Z,9.242344
2023-10-16T03:05:37.104Z,9.242375
2023-10-16T03:06:37.098Z,9.242361
2023-10-16T03:07:37.067Z,9.242326
2023-10-16T03:08:37.071Z,9.242278
2023-10-16T03:09:37.095Z,9.242372
2023-10-16T03:10:37.068Z,9.242352
2023-10-16T03:11:37.036Z,9.242370
2023-10-16T03:12:37.061Z,9.242385
2023-10-16T03:13:37.186Z,9.242375
2023-10-16T03:14:37.064Z,9.242390
2023-10-16T03:15:37.093Z,9.242389
2023-10-16T03:16:37.055Z,9.242363
2023-10-16T03:17:37.069Z,9.242406
2023-10-16T03:18:37.046Z,9.242531
2023-10-16T03:19:37.009Z,9.242452
2023-10-16T03:20:37.056Z,9.242410
2023-10-16T03:21:37.037Z,9.242373
2023-10-16T03:22:37.061Z,9.242439
2023-10-16T03:23:36.958Z,9.242409
2023-10-16T03:24:37.007Z,9.242258
2023-10-16T03:25:36.950Z,9.242321
2023-10-16T03:26:36.943Z,9.242249
2023-10-16T03:27:36.930Z,9.242523
2023-10-16T03:28:38.090Z,9.242481
2023-10-16T03:29:36.984Z,9.242636
2023-10-16T03:30:37.013Z,9.242351
2023-10-16T03:31:36.980Z,9.242436
2023-10-16T03:32:37.086Z,9.242400
2023-10-16T03:33:36.983Z,9.242357
2023-10-16T03:34:37.236Z,9.242484
2023-10-16T03:35:36.977Z,9.242598
2023-10-16T03:36:36.986Z,9.242010
2023-10-16T03:37:36.969Z,9.242007
2023-10-16T03:38:36.902Z,9.242042
2023-10-16T03:39:37.951Z,9.242035
2023-10-16T03:40:38.075Z,9.242012
2023-10-16T03:41:36.862Z,9.242255
2023-10-16T03:42:36.885Z,9.242326
2023-10-16T03:43:36.870Z,9.242008
2023-10-16T03:44:37.997Z,9.242048
2023-10-16T03:45:37.427Z,9.242128
2023-10-16T03:46:36.906Z,9.242302
2023-10-16T03:47:36.882Z,9.242391
2023-10-16T03:48:36.828Z,9.242322
2023-10-16T03:49:38.620Z,9.242410
2023-10-16T03:50:37.941Z,9.242535
2023-10-16T03:51:36.938Z,9.242527
2023-10-16T03:52:36.818Z,9.242483
2023-10-16T03:53:36.840Z,9.242480
2023-10-16T03:54:37.079Z,9.242462
2023-10-16T03:55:36.950Z,9.242419
2023-10-16T03:56:36.874Z,9.242450
2023-10-16T03:57:36.908Z,9.242436
2023-10-16T03:58:37.397Z,9.242454
2023-10-16T03:59:36.793Z,9.242360
2023-10-16T04:00:36.843Z,9.242375
2023-10-16T04:01:36.807Z,9.242509
2023-10-16T04:02:37.910Z,9.242558
2023-10-16T04:03:36.812Z,9.242439
2023-10-16T04:04:36.863Z,9.242417
2023-10-16T04:05:36.761Z,9.242517
2023-10-16T04:06:36.763Z,9.242491
2023-10-16T04:07:36.689Z,9.242373
2023-10-16T04:08:36.677Z,9.242451
2023-10-16T04:09:36.679Z,9.242496
2023-10-16T04:10:36.680Z,9.242657
2023-10-16T04:11:36.867Z,9.242534
2023-10-16T04:12:36.759Z,9.242518
2023-10-16T04:13:36.667Z,9.242522
2023-10-16T04:14:36.712Z,9.242534
2023-10-16T04:15:37.578Z,9.242501
2023-10-16T04:16:36.720Z,9.242507
2023-10-16T04:17:36.664Z,9.242414
2023-10-16T04:18:36.707Z,9.242466
2023-10-16T04:19:36.655Z,9.242365
2023-10-16T04:20:36.623Z,9.242387
2023-10-16T04:21:36.618Z,9.242443
2023-10-16T04:22:36.633Z,9.242350
2023-10-16T04:23:36.605Z,9.242300
2023-10-16T04:24:36.755Z,9.242310
2023-10-16T04:25:36.678Z,9.242227
2023-10-16T04:26:36.653Z,9.242170
2023-10-16T04:27:36.690Z,9.242240
2023-10-16T04:28:36.659Z,9.242313
2023-10-16T04:29:36.700Z,9.242316
2023-10-16T04:30:36.595Z,9.242414
2023-10-16T04:31:36.568Z,9.242280
2023-10-16T04:32:36.692Z,9.242255
2023-10-16T04:33:36.631Z,9.242278
2023-10-16T04:34:36.530Z,9.242328
2023-10-16T04:35:36.736Z,9.242287
2023-10-16T04:36:36.532Z,9.242392
2023-10-16T04:37:36.536Z,9.242416
2023-10-16T04:38:36.508Z,9.242460
2023-10-16T04:39:36.532Z,9.242343
2023-10-16T04:40:36.479Z,9.242349
2023-10-16T04:41:36.470Z,9.242400
2023-10-16T04:42:36.536Z,9.242364
2023-10-16T04:43:36.502Z,9.242352
2023-10-16T04:44:36.449Z,9.242320
2023-10-16T04:45:36.776Z,9.242346
2023-10-16T04:46:36.468Z,9.242412
2023-10-16T04:47:36.474Z,9.242476
2023-10-16T04:48:36.484Z,9.242440
2023-10-16T04:49:36.428Z,9.242427
2023-10-16T04:51:50.201Z,9.242435
2023-10-16T04:52:38.416Z,9.242379
2023-10-16T04:53:36.420Z,9.242354
2023-10-16T04:54:36.401Z,9.242319
2023-10-16T04:55:36.375Z,9.242398
2023-10-16T04:56:36.377Z,9.242419
2023-10-16T04:57:36.504Z,9.242400
2023-10-16T04:58:36.362Z,9.242309
2023-10-16T04:59:36.355Z,9.242379
2023-10-16T05:00:38.285Z,9.242314
2023-10-16T05:01:36.434Z,9.242199
2023-10-16T05:02:36.441Z,9.242346
2023-10-16T05:03:36.642Z,9.242309
2023-10-16T05:04:36.433Z,9.242406
2023-10-16T05:05:36.453Z,9.242399
2023-10-16T05:06:37.396Z,9.242405
2023-10-16T05:07:36.322Z,9.242325
2023-10-16T05:08:36.916Z,9.242304
2023-10-16T05:09:36.884Z,9.242274
2023-10-16T05:10:36.898Z,9.242255
2023-10-16T05:11:36.445Z,9.242361
2023-10-16T05:12:36.330Z,9.242390
2023-10-16T05:13:36.890Z,9.242371
2023-10-16T05:14:36.462Z,9.242429
2023-10-16T05:15:36.368Z,9.242386
2023-10-16T05:16:36.707Z,9.242449
2023-10-16T05:17:36.263Z,9.242381
2023-10-16T05:18:36.279Z,9.242417
2023-10-16T05:19:36.348Z,9.242384
2023-10-16T05:20:36.271Z,9.242425
2023-10-16T05:21:36.972Z,9.242333
2023-10-16T05:22:36.281Z,9.242395
2023-10-16T05:23:36.872Z,9.242438
2023-10-16T05:24:36.308Z,9.242379
2023-10-16T05:25:36.454Z,9.242463
2023-10-16T05:26:36.390Z,9.242435
2023-10-16T05:27:36.283Z,9.242399
2023-10-16T05:28:36.215Z,9.242349
2023-10-16T05:29:50.030Z,9.242410
2023-10-16T05:30:38.235Z,9.242430
2023-10-16T05:31:36.502Z,9.242432
2023-10-16T05:32:36.232Z,9.242416
2023-10-16T05:33:36.297Z,9.242442
2023-10-16T05:34:36.164Z,9.242360
2023-10-16T05:35:36.176Z,9.242327
2023-10-16T05:36:36.290Z,9.242345
2023-10-16T05:37:36.119Z,9.242404
2023-10-16T05:38:36.104Z,9.242410
2023-10-16T05:39:36.170Z,9.242393
2023-10-16T05:40:36.430Z,9.242312
2023-10-16T05:41:36.134Z,9.242367
2023-10-16T05:42:36.172Z,9.242368
2023-10-16T05:43:36.205Z,9.242414
2023-10-16T05:44:36.761Z,9.242408
2023-10-16T05:45:36.179Z,9.242381
2023-10-16T05:46:36.133Z,9.242403
2023-10-16T05:47:36.172Z,9.242335
2023-10-16T05:48:36.192Z,9.242414
2023-10-16T05:49:36.095Z,9.242410
2023-10-16T05:50:36.525Z,9.242389
2023-10-16T05:51:36.103Z,9.242414
2023-10-16T05:52:36.151Z,9.242340
2023-10-16T05:53:36.039Z,9.242375
2023-10-16T05:54:36.241Z,9.242444
2023-10-16T05:55:36.015Z,9.242380
2023-10-16T05:56:36.010Z,9.242439
2023-10-16T05:57:36.086Z,9.242310
2023-10-16T05:58:36.078Z,9.242242
2023-10-16T05:59:36.444Z,9.242318
2023-10-16T06:00:37.113Z,9.242312
2023-10-16T06:01:36.024Z,9.242208
2023-10-16T06:02:36.057Z,9.242360
2023-10-16T06:03:36.985Z,9.242319
2023-10-16T06:04:36.177Z,9.242233
2023-10-16T06:05:36.101Z,9.242183
2023-10-16T06:06:35.972Z,9.242273
2023-10-16T06:07:36.145Z,9.242317
2023-10-16T06:08:36.067Z,9.242107
2023-10-16T06:09:36.020Z,9.242288
2023-10-16T06:10:35.969Z,9.242189
2023-10-16T06:11:36.165Z,9.242317
2023-10-16T06:12:36.035Z,9.242352
2023-10-16T06:13:36.211Z,9.242417
2023-10-16T06:14:37.184Z,9.242359
2023-10-16T06:15:36.925Z,9.242329
2023-10-16T06:16:36.011Z,9.242265
2023-10-16T06:17:35.950Z,9.242254
2023-10-16T06:18:35.983Z,9.242238
2023-10-16T06:19:35.837Z,9.242279
2023-10-16T06:20:35.853Z,9.242234
2023-10-16T06:21:36.119Z,9.242256
2023-10-16T06:22:36.397Z,9.242283
2023-10-16T06:23:36.086Z,9.242301
2023-10-16T06:24:35.965Z,9.242412
2023-10-16T06:25:35.858Z,9.242258
2023-10-16T06:26:35.893Z,9.242314
2023-10-16T06:27:35.956Z,9.242278
2023-10-16T06:28:35.867Z,9.242277
2023-10-16T06:29:36.102Z,9.242290
2023-10-16T06:30:35.870Z,9.242325
2023-10-16T06:31:35.853Z,9.242337
2023-10-16T06:32:35.870Z,9.242362
2023-10-16T06:33:35.945Z,9.242257
2023-10-16T06:34:35.977Z,9.242272
2023-10-16T06:35:35.866Z,9.242324
2023-10-16T06:36:35.781Z,9.242315
2023-10-16T06:37:35.755Z,9.242261
2023-10-16T06:38:35.747Z,9.242282
2023-10-16T06:39:35.860Z,9.242510
2023-10-16T06:40:35.756Z,9.242493
2023-10-16T06:41:35.772Z,9.242470
2023-10-16T06:42:35.728Z,9.242424
2023-10-16T06:43:35.705Z,9.242380
2023-10-16T06:44:35.957Z,9.242393
2023-10-16T06:45:35.841Z,9.242368
2023-10-16T06:46:35.739Z,9.242418
2023-10-16T06:47:35.685Z,9.242434
2023-10-16T06:48:35.716Z,9.242374
2023-10-16T06:49:35.658Z,9.242336
2023-10-16T06:50:35.677Z,9.242442
2023-10-16T06:51:35.720Z,9.242397
2023-10-16T06:52:35.671Z,9.242411
2023-10-16T06:53:35.884Z,9.242388
2023-10-16T06:54:35.749Z,9.242380
2023-10-16T06:55:35.671Z,9.242330
2023-10-16T06:56:35.795Z,9.242373
2023-10-16T06:57:35.814Z,9.242408
2023-10-16T06:58:35.746Z,9.242339
2023-10-16T06:59:35.588Z,9.242361
2023-10-16T07:00:35.776Z,9.242444
2023-10-16T07:01:35.635Z,9.242429
2023-10-16T07:02:35.621Z,9.242365
2023-10-16T07:03:35.721Z,9.242354
2023-10-16T07:04:35.628Z,9.242402
2023-10-16T07:05:35.540Z,9.242453
2023-10-16T07:06:35.557Z,9.242414
2023-10-16T07:07:36.078Z,9.242459
2023-10-16T07:08:35.562Z,9.242414
2023-10-16T07:09:35.566Z,9.242414
2023-10-16T07:10:35.583Z,9.242299
2023-10-16T07:11:35.548Z,9.242349
2023-10-16T07:12:35.863Z,9.242263
2023-10-16T07:13:35.508Z,9.242375
2023-10-16T07:14:35.497Z,9.242324
2023-10-16T07:15:35.539Z,9.242465
2023-10-16T07:16:37.677Z,9.242430
2023-10-16T07:17:37.247Z,9.242460
2023-10-16T07:18:36.508Z,9.242477
2023-10-16T07:19:35.469Z,9.242476
2023-10-16T07:20:35.495Z,9.242448
2023-10-16T07:21:36.069Z,9.242426
2023-10-16T07:22:35.471Z,9.242403
2023-10-16T07:23:35.453Z,9.242350
2023-10-16T07:24:35.466Z,9.242275
2023-10-16T07:25:35.422Z,9.242377
2023-10-16T07:26:36.442Z,9.242337
2023-10-16T07:27:35.525Z,9.242382
2023-10-16T07:28:35.428Z,9.242348
2023-10-16T07:29:35.401Z,9.242403
2023-10-16T07:30:35.408Z,9.242367
2023-10-16T07:31:35.431Z,9.242333
2023-10-16T07:32:35.387Z,9.242378
2023-10-16T07:33:35.848Z,9.242310
2023-10-16T07:34:35.395Z,9.242399
2023-10-16T07:35:35.380Z,9.242366
2023-10-16T07:36:35.394Z,9.242096
2023-10-16T07:37:35.359Z,9.242333
2023-10-16T07:38:35.354Z,9.242316
2023-10-16T07:39:35.441Z,9.242313
2023-10-16T07:40:35.388Z,9.242401
2023-10-16T07:41:35.441Z,9.242323
2023-10-16T07:42:35.333Z,9.242325
2023-10-16T07:43:35.318Z,9.242410
2023-10-16T07:44:35.299Z,9.242377
2023-10-16T07:45:36.718Z,9.242454
2023-10-16T07:46:36.304Z,9.242345
2023-10-16T07:47:35.299Z,9.242365
2023-10-16T07:48:35.306Z,9.242376
2023-10-16T07:49:35.305Z,9.242352
2023-10-16T07:50:35.296Z,9.242375
2023-10-16T07:51:36.323Z,9.242364
2023-10-16T07:52:35.290Z,9.242382
2023-10-16T07:53:35.308Z,9.242403
2023-10-16T07:54:35.298Z,9.242431
2023-10-16T07:55:35.292Z,9.242413
2023-10-16T07:56:35.319Z,9.242393
2023-10-16T07:57:35.275Z,9.242455
2023-10-16T07:58:35.219Z,9.242437
2023-10-16T07:59:37.559Z,9.242409
2023-10-16T08:00:35.216Z,9.242469
2023-10-16T08:01:35.432Z,9.242360
2023-10-16T08:02:35.215Z,9.242359
2023-10-16T08:03:35.265Z,9.242377
2023-10-16T08:04:35.453Z,9.242397
2023-10-16T08:05:35.186Z,9.242396
2023-10-16T08:06:35.334Z,9.242309
2023-10-16T08:07:35.169Z,9.242430
2023-10-16T08:08:35.258Z,9.242358
2023-10-16T08:09:35.174Z,9.242334
2023-10-16T08:10:35.150Z,9.242435
2023-10-16T08:11:35.222Z,9.242400
2023-10-16T08:12:35.178Z,9.242426
2023-10-16T08:13:35.151Z,9.242483
2023-10-16T08:14:35.210Z,9.242421
2023-10-16T08:15:35.176Z,9.242505
2023-10-16T08:16:35.306Z,9.242517
2023-10-16T08:17:35.217Z,9.242389
2023-10-16T08:18:35.164Z,9.242450
2023-10-16T08:19:35.099Z,9.242432
2023-10-16T08:20:35.060Z,9.242436
2023-10-16T08:21:36.140Z,9.242431
2023-10-16T08:22:35.075Z,9.242453
2023-10-16T08:23:35.914Z,9.242375
2023-10-16T08:24:35.173Z,9.242411
2023-10-16T08:25:35.037Z,9.242416
2023-10-16T08:26:35.037Z,9.242384
2023-10-16T08:27:35.083Z,9.242364
2023-10-16T08:28:35.007Z,9.242368
2023-10-16T08:29:35.832Z,9.242446
2023-10-16T08:30:35.349Z,9.242453
2023-10-16T08:31:35.020Z,9.242385
2023-10-16T08:32:35.001Z,9.242372
2023-10-16T08:33:35.882Z,9.242465
2023-10-16T08:34:35.040Z,9.242496
2023-10-16T08:35:34.981Z,9.242394
2023-10-16T08:36:35.126Z,9.242352
2023-10-16T08:37:50.568Z,9.242322
2023-10-16T08:38:36.948Z,9.242335
2023-10-16T08:39:36.435Z,9.242381
2023-10-16T08:40:34.946Z,9.242390
2023-10-16T08:41:34.949Z,9.242399
2023-10-16T08:42:35.009Z,9.242368
2023-10-16T08:43:35.003Z,9.242393
2023-10-16T08:44:34.917Z,9.242342
2023-10-16T08:45:35.907Z,9.242381
2023-10-16T08:46:34.963Z,9.242316
2023-10-16T08:47:34.908Z,9.242266
2023-10-16T08:48:34.908Z,9.242294
2023-10-16T08:49:44.441Z,9.242386
2023-10-16T08:50:36.889Z,9.242429
2023-10-16T08:51:34.922Z,9.242324
2023-10-16T08:52:34.865Z,9.242272
2023-10-16T08:53:35.399Z,9.242440
2023-10-16T08:54:35.893Z,9.242428
2023-10-16T08:55:34.849Z,9.242408
2023-10-16T08:56:34.852Z,9.242414
2023-10-16T08:57:34.843Z,9.242266
2023-10-16T08:58:34.815Z,9.242249
2023-10-16T08:59:34.958Z,9.242312
2023-10-16T09:00:34.854Z,9.242385
2023-10-16T09:01:35.001Z,9.242439
2023-10-16T09:02:35.810Z,9.242410
2023-10-16T09:03:35.297Z,9.242437
2023-10-16T09:04:34.863Z,9.242365
2023-10-16T09:05:34.811Z,9.242405
2023-10-16T09:06:34.762Z,9.242415
2023-10-16T09:07:34.785Z,9.242404
2023-10-16T09:08:34.739Z,9.242372
2023-10-16T09:09:34.778Z,9.242402
2023-10-16T09:10:34.903Z,9.242329
2023-10-16T09:11:34.735Z,9.242346
2023-10-16T09:12:34.757Z,9.242402
2023-10-16T09:13:34.724Z,9.242429
2023-10-16T09:14:34.729Z,9.242509
2023-10-16T09:15:34.725Z,9.242384
2023-10-16T09:16:34.742Z,9.242352
2023-10-16T09:17:34.707Z,9.242385
2023-10-16T09:18:34.763Z,9.242403
2023-10-16T09:19:34.738Z,9.242374
2023-10-16T09:20:34.831Z,9.242442
2023-10-16T09:21:34.675Z,9.242435
2023-10-16T09:22:35.640Z,9.242399
2023-10-16T09:23:34.653Z,9.242246
2023-10-16T09:24:34.657Z,9.242311
2023-10-16T09:25:38.346Z,9.242422
2023-10-16T09:26:35.607Z,9.242388
2023-10-16T09:27:34.634Z,9.242401
2023-10-16T09:28:34.651Z,9.242435
2023-10-16T09:29:36.080Z,9.242439
2023-10-16T09:30:35.697Z,9.242434
2023-10-16T09:31:34.740Z,9.242427
2023-10-16T09:32:34.681Z,9.242335
2023-10-16T09:33:34.621Z,9.242392
2023-10-16T09:34:34.565Z,9.242433
2023-10-16T09:35:34.882Z,9.242439
2023-10-16T09:36:34.619Z,9.242442
2023-10-16T09:37:34.570Z,9.242428
2023-10-16T09:38:34.680Z,9.242414
2023-10-16T09:39:34.549Z,9.242424
2023-10-16T09:40:36.496Z,9.242417
2023-10-16T09:41:34.514Z,9.242415
2023-10-16T09:42:34.550Z,9.242399
2023-10-16T09:43:34.491Z,9.242427
2023-10-16T09:44:34.482Z,9.242430
2023-10-16T09:45:34.503Z,9.242393
2023-10-16T09:46:34.501Z,9.242377
2023-10-16T09:47:34.492Z,9.242440
2023-10-16T09:48:34.665Z,9.242422
2023-10-16T09:49:34.500Z,9.242409
2023-10-16T09:50:34.463Z,9.242425
2023-10-16T09:51:34.524Z,9.242430
2023-10-16T09:52:34.534Z,9.242403
2023-10-16T09:53:34.436Z,9.242422
2023-10-16T09:54:34.441Z,9.242418
2023-10-16T09:55:34.428Z,9.242396
2023-10-16T09:56:34.457Z,9.242436
2023-10-16T09:57:34.429Z,9.242395
2023-10-16T09:58:34.381Z,9.242391
2023-10-16T09:59:35.427Z,9.242440
2023-10-16T10:00:34.398Z,9.242440
2023-10-16T10:01:34.492Z,9.242488
2023-10-16T10:02:34.429Z,9.242451
2023-10-16T10:03:34.468Z,9.242411
2023-10-16T10:04:34.534Z,9.242341
2023-10-16T10:05:34.344Z,9.242419
2023-10-16T10:06:34.359Z,9.242442
2023-10-16T10:07:34.352Z,9.242363
2023-10-16T10:08:35.552Z,9.242376
2023-10-16T10:09:34.350Z,9.242435
2023-10-16T10:10:37.433Z,9.242455
2023-10-16T10:11:34.316Z,9.242445
2023-10-16T10:12:34.353Z,9.242537
2023-10-16T10:13:34.291Z,9.242512
2023-10-16T10:14:34.294Z,9.242457
2023-10-16T10:15:35.359Z,9.242428
2023-10-16T10:16:34.286Z,9.242471
2023-10-16T10:17:34.255Z,9.242480
2023-10-16T10:18:34.333Z,9.242466
2023-10-16T10:19:34.308Z,9.242445
2023-10-16T10:20:34.330Z,9.242386
2023-10-16T10:21:34.274Z,9.242429
2023-10-16T10:22:34.213Z,9.242452
2023-10-16T10:23:34.245Z,9.242425
2023-10-16T10:24:34.372Z,9.242422
2023-10-16T10:25:34.525Z,9.242359
2023-10-16T10:26:34.260Z,9.242334
2023-10-16T10:27:34.222Z,9.242380
2023-10-16T10:28:34.176Z,9.242384
2023-10-16T10:29:34.201Z,9.242317
2023-10-16T10:30:34.220Z,9.242349
2023-10-16T10:31:34.247Z,9.242367
2023-10-16T10:32:34.184Z,9.242421
2023-10-16T10:33:34.189Z,9.242425
2023-10-16T10:34:34.294Z,9.242274
2023-10-16T10:35:34.142Z,9.242304
2023-10-16T10:36:35.292Z,9.242382
2023-10-16T10:37:34.114Z,9.242381
2023-10-16T10:38:34.162Z,9.242435
2023-10-16T10:39:34.300Z,9.242410
2023-10-16T10:40:34.088Z,9.242385
2023-10-16T10:41:34.080Z,9.242358
2023-10-16T10:42:34.138Z,9.242370
2023-10-16T10:43:34.091Z,9.242424
2023-10-16T10:44:34.102Z,9.242438
2023-10-16T10:45:34.062Z,9.242428
2023-10-16T10:46:34.197Z,9.242384
2023-10-16T10:47:34.293Z,9.242413
2023-10-16T10:48:34.118Z,9.242368
2023-10-16T10:49:34.136Z,9.242420
2023-10-16T10:50:34.060Z,9.242360
2023-10-16T10:51:34.080Z,9.242357
2023-10-16T10:52:34.575Z,9.242384
2023-10-16T10:53:34.213Z,9.242344
2023-10-16T10:54:34.396Z,9.242416
2023-10-16T10:55:34.318Z,9.242445
2023-10-16T10:56:34.090Z,9.242395
2023-10-16T10:57:34.066Z,9.242400
2023-10-16T10:58:33.999Z,9.242418
2023-10-16T10:59:34.865Z,9.242387
2023-10-16T11:00:35.352Z,9.242439
2023-10-16T11:01:34.014Z,9.242421
2023-10-16T11:02:34.035Z,9.242402
2023-10-16T11:03:34.145Z,9.242325
2023-10-16T11:04:34.117Z,9.242368
2023-10-16T11:05:33.961Z,9.242423
2023-10-16T11:06:34.031Z,9.242439
2023-10-16T11:07:36.154Z,9.242433
2023-10-16T11:08:33.998Z,9.242345
2023-10-16T11:09:34.012Z,9.242290
2023-10-16T11:10:34.542Z,9.242275
2023-10-16T11:11:33.927Z,9.242283
2023-10-16T11:12:33.935Z,9.242311
2023-10-16T11:13:33.867Z,9.242453
2023-10-16T11:14:33.900Z,9.242418
2023-10-16T11:15:33.884Z,9.242359
2023-10-16T11:16:33.921Z,9.242366
2023-10-16T11:17:33.893Z,9.242418
2023-10-16T11:18:34.044Z,9.242457
2023-10-16T11:19:33.859Z,9.242410
2023-10-16T11:20:33.830Z,9.242390
2023-10-16T11:21:35.318Z,9.242370
2023-10-16T11:22:33.801Z,9.242293
2023-10-16T11:23:33.808Z,9.242390
2023-10-16T11:24:35.024Z,9.242432
2023-10-16T11:25:33.813Z,9.242374
2023-10-16T11:26:34.455Z,9.242365
2023-10-16T11:27:33.840Z,9.242268
2023-10-16T11:28:33.878Z,9.242273
2023-10-16T11:29:33.840Z,9.242382
2023-10-16T11:30:33.875Z,9.242388
2023-10-16T11:31:33.842Z,9.242228
2023-10-16T11:32:33.774Z,9.242255
2023-10-16T11:33:33.867Z,9.242263
2023-10-16T11:34:33.934Z,9.242237
2023-10-16T11:35:33.745Z,9.242190
2023-10-16T11:36:39.593Z,9.242245
2023-10-16T11:37:35.700Z,9.242289
2023-10-16T11:38:33.709Z,9.242326
2023-10-16T11:39:33.774Z,9.242306
2023-10-16T11:40:33.808Z,9.242378
2023-10-16T11:41:33.705Z,9.242352
2023-10-16T11:42:33.707Z,9.242418
2023-10-16T11:43:33.679Z,9.242403
2023-10-16T11:44:33.855Z,9.242423
2023-10-16T11:45:33.697Z,9.242432